sensor_id;sensor_type;location;lat;lon;timestamp;P1;durP1;ratioP1;P2;durP2;ratioP2
65871;SDS011;52653;50.080;21.992;2024-01-15T00:01:01;34.00;;;21.00;;
65871;SDS011;52653;50.080;21.992;2024-01-15T00:04:39;38.30;;;22.80;;
65871;SDS011;52653;50.080;21.992;2024-01-15T00:07:32;33.30;;;21.50;;
65871;SDS011;52653;50.080;21.992;2024-01-15T00:10:25;33.60;;;21.10;;
65871;SDS011;52653;50.080;21.992;2024-01-15T00:13:11;32.70;;;21.80;;
65871;SDS011;52653;50.080;21.992;2024-01-15T00:15:56;35.50;;;21.00;;
65871;SDS011;52653;50.080;21.992;2024-01-15T00:18:43;33.50;;;21.30;;
65871;SDS011;52653;50.080;21.992;2024-01-15T00:21:36;34.80;;;21.90;;
65871;SDS011;52653;50.080;21.992;2024-01-15T00:24:28;33.00;;;21.20;;
65871;SDS011;52653;50.080;21.992;2024-01-15T00:27:14;31.60;;;20.70;;
65871;SDS011;52653;50.080;21.992;2024-01-15T00:30:06;33.30;;;21.10;;
65871;SDS011;52653;50.080;21.992;2024-01-15T00:32:54;32.90;;;20.50;;
65871;SDS011;52653;50.080;21.992;2024-01-15T00:35:47;31.40;;;20.50;;
65871;SDS011;52653;50.080;21.992;2024-01-15T00:38:40;33.20;;;20.90;;
65871;SDS011;52653;50.080;21.992;2024-01-15T00:41:33;31.50;;;20.10;;
65871;SDS011;52653;50.080;21.992;2024-01-15T00:44:25;31.00;;;19.00;;
65871;SDS011;52653;50.080;21.992;2024-01-15T00:47:19;31.70;;;19.80;;
65871;SDS011;52653;50.080;21.992;2024-01-15T00:49:55;31.30;;;20.00;;
65871;SDS011;52653;50.080;21.992;2024-01-15T00:53:12;33.40;;;19.40;;
65871;SDS011;52653;50.080;21.992;2024-01-15T00:56:05;31.00;;;19.20;;
65871;SDS011;52653;50.080;21.992;2024-01-15T00:58:47;28.90;;;19.60;;
65871;SDS011;52653;50.080;21.992;2024-01-15T01:01:32;31.50;;;20.70;;
65871;SDS011;52653;50.080;21.992;2024-01-15T01:04:14;32.30;;;20.60;;
65871;SDS011;52653;50.080;21.992;2024-01-15T01:07:08;27.50;;;18.40;;
65871;SDS011;52653;50.080;21.992;2024-01-15T01:09:56;30.80;;;19.30;;
65871;SDS011;52653;50.080;21.992;2024-01-15T01:12:47;31.70;;;20.10;;
65871;SDS011;52653;50.080;21.992;2024-01-15T01:15:40;29.50;;;18.60;;
65871;SDS011;52653;50.080;21.992;2024-01-15T01:18:35;28.80;;;18.20;;
65871;SDS011;52653;50.080;21.992;2024-01-15T01:21:27;29.30;;;17.50;;
65871;SDS011;52653;50.080;21.992;2024-01-15T01:24:20;29.20;;;17.40;;
65871;SDS011;52653;50.080;21.992;2024-01-15T01:27:15;29.40;;;18.30;;
65871;SDS011;52653;50.080;21.992;2024-01-15T01:30:01;28.40;;;17.60;;
65871;SDS011;52653;50.080;21.992;2024-01-15T01:32:54;27.80;;;17.50;;
65871;SDS011;52653;50.080;21.992;2024-01-15T01:35:40;27.30;;;17.10;;
65871;SDS011;52653;50.080;21.992;2024-01-15T01:38:34;28.70;;;18.00;;
65871;SDS011;52653;50.080;21.992;2024-01-15T01:41:27;24.80;;;16.20;;
65871;SDS011;52653;50.080;21.992;2024-01-15T01:44:20;26.90;;;16.80;;
65871;SDS011;52653;50.080;21.992;2024-01-15T01:47:16;28.10;;;17.80;;
65871;SDS011;52653;50.080;21.992;2024-01-15T01:50:09;26.30;;;17.20;;
65871;SDS011;52653;50.080;21.992;2024-01-15T01:53:03;25.20;;;16.00;;
65871;SDS011;52653;50.080;21.992;2024-01-15T01:55:56;27.80;;;17.40;;
65871;SDS011;52653;50.080;21.992;2024-01-15T01:58:51;23.40;;;15.80;;
65871;SDS011;52653;50.080;21.992;2024-01-15T02:01:44;27.00;;;15.20;;
65871;SDS011;52653;50.080;21.992;2024-01-15T02:04:32;23.50;;;14.90;;
65871;SDS011;52653;50.080;21.992;2024-01-15T02:07:26;24.40;;;15.30;;
65871;SDS011;52653;50.080;21.992;2024-01-15T02:10:19;24.30;;;15.40;;
65871;SDS011;52653;50.080;21.992;2024-01-15T02:13:12;25.30;;;16.30;;
65871;SDS011;52653;50.080;21.992;2024-01-15T02:16:06;22.80;;;14.20;;
65871;SDS011;52653;50.080;21.992;2024-01-15T02:19:00;21.50;;;14.60;;
65871;SDS011;52653;50.080;21.992;2024-01-15T02:21:56;21.30;;;13.80;;
65871;SDS011;52653;50.080;21.992;2024-01-15T02:24:49;22.80;;;14.70;;
65871;SDS011;52653;50.080;21.992;2024-01-15T02:27:24;23.30;;;15.00;;
65871;SDS011;52653;50.080;21.992;2024-01-15T02:30:17;23.90;;;15.20;;
65871;SDS011;52653;50.080;21.992;2024-01-15T02:33:10;26.20;;;16.20;;
65871;SDS011;52653;50.080;21.992;2024-01-15T02:36:04;23.10;;;14.20;;
65871;SDS011;52653;50.080;21.992;2024-01-15T02:42:03;23.70;;;15.20;;
65871;SDS011;52653;50.080;21.992;2024-01-15T02:44:50;25.00;;;15.50;;
65871;SDS011;52653;50.080;21.992;2024-01-15T02:47:43;24.80;;;15.60;;
65871;SDS011;52653;50.080;21.992;2024-01-15T02:50:34;22.10;;;14.40;;
65871;SDS011;52653;50.080;21.992;2024-01-15T02:53:27;24.20;;;15.80;;
65871;SDS011;52653;50.080;21.992;2024-01-15T02:56:21;22.90;;;14.80;;
65871;SDS011;52653;50.080;21.992;2024-01-15T02:59:14;24.60;;;14.60;;
65871;SDS011;52653;50.080;21.992;2024-01-15T03:02:01;23.20;;;14.70;;
65871;SDS011;52653;50.080;21.992;2024-01-15T03:04:46;22.60;;;15.00;;
65871;SDS011;52653;50.080;21.992;2024-01-15T03:07:39;22.30;;;13.60;;
65871;SDS011;52653;50.080;21.992;2024-01-15T03:10:33;21.60;;;13.30;;
65871;SDS011;52653;50.080;21.992;2024-01-15T03:13:28;22.20;;;13.80;;
65871;SDS011;52653;50.080;21.992;2024-01-15T03:16:23;21.80;;;13.80;;
65871;SDS011;52653;50.080;21.992;2024-01-15T03:19:08;21.80;;;14.20;;
65871;SDS011;52653;50.080;21.992;2024-01-15T03:21:51;21.30;;;13.40;;
65871;SDS011;52653;50.080;21.992;2024-01-15T03:24:44;20.50;;;13.30;;
65871;SDS011;52653;50.080;21.992;2024-01-15T03:27:38;20.20;;;13.20;;
65871;SDS011;52653;50.080;21.992;2024-01-15T03:30:30;19.80;;;13.10;;
65871;SDS011;52653;50.080;21.992;2024-01-15T03:33:16;20.20;;;13.60;;
65871;SDS011;52653;50.080;21.992;2024-01-15T03:36:10;20.90;;;13.70;;
65871;SDS011;52653;50.080;21.992;2024-01-15T03:39:03;20.30;;;13.00;;
65871;SDS011;52653;50.080;21.992;2024-01-15T03:41:45;21.10;;;13.40;;
65871;SDS011;52653;50.080;21.992;2024-01-15T03:44:38;22.20;;;12.80;;
65871;SDS011;52653;50.080;21.992;2024-01-15T03:47:22;22.70;;;13.50;;
65871;SDS011;52653;50.080;21.992;2024-01-15T03:50:16;20.80;;;12.30;;
65871;SDS011;52653;50.080;21.992;2024-01-15T03:53:09;20.20;;;12.80;;
65871;SDS011;52653;50.080;21.992;2024-01-15T03:55:54;20.60;;;13.10;;
65871;SDS011;52653;50.080;21.992;2024-01-15T03:58:49;19.30;;;12.60;;
65871;SDS011;52653;50.080;21.992;2024-01-15T04:01:42;20.50;;;13.10;;
65871;SDS011;52653;50.080;21.992;2024-01-15T04:04:42;20.20;;;12.50;;
65871;SDS011;52653;50.080;21.992;2024-01-15T04:07:35;19.80;;;13.10;;
65871;SDS011;52653;50.080;21.992;2024-01-15T04:10:27;18.40;;;12.20;;
65871;SDS011;52653;50.080;21.992;2024-01-15T04:13:20;19.20;;;11.80;;
65871;SDS011;52653;50.080;21.992;2024-01-15T04:15:59;20.10;;;12.40;;
65871;SDS011;52653;50.080;21.992;2024-01-15T04:18:53;18.40;;;10.90;;
65871;SDS011;52653;50.080;21.992;2024-01-15T04:21:36;19.00;;;11.90;;
65871;SDS011;52653;50.080;21.992;2024-01-15T04:24:31;18.50;;;11.60;;
65871;SDS011;52653;50.080;21.992;2024-01-15T04:27:23;18.40;;;12.00;;
65871;SDS011;52653;50.080;21.992;2024-01-15T04:30:06;17.00;;;10.50;;
65871;SDS011;52653;50.080;21.992;2024-01-15T04:32:49;16.20;;;11.10;;
65871;SDS011;52653;50.080;21.992;2024-01-15T04:35:43;17.50;;;11.10;;
65871;SDS011;52653;50.080;21.992;2024-01-15T04:38:36;17.30;;;10.40;;
65871;SDS011;52653;50.080;21.992;2024-01-15T04:41:29;18.90;;;10.40;;
65871;SDS011;52653;50.080;21.992;2024-01-15T04:44:21;18.70;;;11.70;;
65871;SDS011;52653;50.080;21.992;2024-01-15T04:47:14;16.80;;;10.60;;
65871;SDS011;52653;50.080;21.992;2024-01-15T04:50:07;17.20;;;10.70;;
65871;SDS011;52653;50.080;21.992;2024-01-15T04:53:02;18.70;;;11.40;;
65871;SDS011;52653;50.080;21.992;2024-01-15T04:56:01;17.70;;;10.80;;
65871;SDS011;52653;50.080;21.992;2024-01-15T04:58:54;18.00;;;10.80;;
65871;SDS011;52653;50.080;21.992;2024-01-15T05:01:37;17.80;;;11.60;;
65871;SDS011;52653;50.080;21.992;2024-01-15T05:04:26;16.60;;;11.20;;
65871;SDS011;52653;50.080;21.992;2024-01-15T05:07:18;17.20;;;11.00;;
65871;SDS011;52653;50.080;21.992;2024-01-15T05:10:11;18.40;;;11.60;;
65871;SDS011;52653;50.080;21.992;2024-01-15T05:13:04;19.60;;;12.10;;
65871;SDS011;52653;50.080;21.992;2024-01-15T05:15:56;19.90;;;12.50;;
65871;SDS011;52653;50.080;21.992;2024-01-15T05:18:48;19.50;;;12.50;;
65871;SDS011;52653;50.080;21.992;2024-01-15T05:21:42;19.90;;;11.80;;
65871;SDS011;52653;50.080;21.992;2024-01-15T05:24:25;19.40;;;11.60;;
65871;SDS011;52653;50.080;21.992;2024-01-15T05:27:09;18.50;;;11.30;;
65871;SDS011;52653;50.080;21.992;2024-01-15T05:30:02;20.40;;;12.30;;
65871;SDS011;52653;50.080;21.992;2024-01-15T05:32:47;19.60;;;11.30;;
65871;SDS011;52653;50.080;21.992;2024-01-15T05:35:41;18.60;;;11.70;;
65871;SDS011;52653;50.080;21.992;2024-01-15T05:38:33;17.70;;;11.10;;
65871;SDS011;52653;50.080;21.992;2024-01-15T05:41:09;19.90;;;12.90;;
65871;SDS011;52653;50.080;21.992;2024-01-15T05:44:02;19.70;;;12.40;;
65871;SDS011;52653;50.080;21.992;2024-01-15T05:46:55;19.30;;;12.30;;
65871;SDS011;52653;50.080;21.992;2024-01-15T05:49:48;19.10;;;12.30;;
65871;SDS011;52653;50.080;21.992;2024-01-15T05:52:44;19.00;;;12.10;;
65871;SDS011;52653;50.080;21.992;2024-01-15T05:55:37;20.00;;;12.10;;
65871;SDS011;52653;50.080;21.992;2024-01-15T05:58:30;19.10;;;12.40;;
65871;SDS011;52653;50.080;21.992;2024-01-15T06:01:23;21.40;;;13.20;;
65871;SDS011;52653;50.080;21.992;2024-01-15T06:04:16;18.90;;;12.50;;
65871;SDS011;52653;50.080;21.992;2024-01-15T06:07:06;19.80;;;12.60;;
65871;SDS011;52653;50.080;21.992;2024-01-15T06:09:59;19.70;;;12.50;;
65871;SDS011;52653;50.080;21.992;2024-01-15T06:12:52;18.40;;;12.20;;
65871;SDS011;52653;50.080;21.992;2024-01-15T06:15:44;19.90;;;12.70;;
65871;SDS011;52653;50.080;21.992;2024-01-15T06:18:39;21.20;;;13.10;;
65871;SDS011;52653;50.080;21.992;2024-01-15T06:21:26;30.40;;;14.20;;
65871;SDS011;52653;50.080;21.992;2024-01-15T06:24:18;19.10;;;12.40;;
65871;SDS011;52653;50.080;21.992;2024-01-15T06:27:13;19.90;;;13.60;;
65871;SDS011;52653;50.080;21.992;2024-01-15T06:30:06;20.60;;;13.10;;
65871;SDS011;52653;50.080;21.992;2024-01-15T06:33:00;22.90;;;13.60;;
65871;SDS011;52653;50.080;21.992;2024-01-15T06:35:54;21.60;;;13.60;;
65871;SDS011;52653;50.080;21.992;2024-01-15T06:38:48;21.00;;;13.30;;
65871;SDS011;52653;50.080;21.992;2024-01-15T06:41:40;22.30;;;14.30;;
65871;SDS011;52653;50.080;21.992;2024-01-15T06:44:37;22.00;;;13.70;;
65871;SDS011;52653;50.080;21.992;2024-01-15T06:47:29;22.70;;;14.80;;
65871;SDS011;52653;50.080;21.992;2024-01-15T06:50:22;22.40;;;15.70;;
65871;SDS011;52653;50.080;21.992;2024-01-15T06:56:18;23.60;;;14.60;;
65871;SDS011;52653;50.080;21.992;2024-01-15T06:59:13;22.20;;;14.50;;
65871;SDS011;52653;50.080;21.992;2024-01-15T07:02:08;22.80;;;15.20;;
65871;SDS011;52653;50.080;21.992;2024-01-15T07:04:54;21.70;;;14.20;;
65871;SDS011;52653;50.080;21.992;2024-01-15T07:07:45;21.20;;;13.40;;
65871;SDS011;52653;50.080;21.992;2024-01-15T07:10:37;23.00;;;14.20;;
65871;SDS011;52653;50.080;21.992;2024-01-15T07:13:29;22.60;;;14.50;;
65871;SDS011;52653;50.080;21.992;2024-01-15T07:16:22;21.70;;;14.30;;
65871;SDS011;52653;50.080;21.992;2024-01-15T07:19:26;20.70;;;13.30;;
65871;SDS011;52653;50.080;21.992;2024-01-15T07:22:19;23.20;;;15.00;;
65871;SDS011;52653;50.080;21.992;2024-01-15T07:25:11;23.90;;;14.90;;
65871;SDS011;52653;50.080;21.992;2024-01-15T07:28:06;24.30;;;15.60;;
65871;SDS011;52653;50.080;21.992;2024-01-15T07:30:58;23.10;;;15.20;;
65871;SDS011;52653;50.080;21.992;2024-01-15T07:33:56;23.30;;;14.90;;
65871;SDS011;52653;50.080;21.992;2024-01-15T07:36:33;23.80;;;15.10;;
65871;SDS011;52653;50.080;21.992;2024-01-15T07:39:26;20.90;;;14.40;;
65871;SDS011;52653;50.080;21.992;2024-01-15T07:42:19;23.20;;;14.70;;
65871;SDS011;52653;50.080;21.992;2024-01-15T07:45:12;24.30;;;14.80;;
65871;SDS011;52653;50.080;21.992;2024-01-15T07:48:05;23.60;;;14.70;;
65871;SDS011;52653;50.080;21.992;2024-01-15T07:50:49;22.30;;;15.20;;
65871;SDS011;52653;50.080;21.992;2024-01-15T07:53:35;24.60;;;15.70;;
65871;SDS011;52653;50.080;21.992;2024-01-15T07:56:28;25.60;;;14.80;;
65871;SDS011;52653;50.080;21.992;2024-01-15T07:59:21;28.40;;;16.90;;
65871;SDS011;52653;50.080;21.992;2024-01-15T08:02:15;29.10;;;17.10;;
65871;SDS011;52653;50.080;21.992;2024-01-15T08:05:00;31.00;;;17.50;;
65871;SDS011;52653;50.080;21.992;2024-01-15T08:07:55;25.90;;;16.60;;
65871;SDS011;52653;50.080;21.992;2024-01-15T08:10:48;32.50;;;19.00;;
65871;SDS011;52653;50.080;21.992;2024-01-15T08:13:41;26.40;;;16.60;;
65871;SDS011;52653;50.080;21.992;2024-01-15T08:16:39;24.80;;;15.00;;
65871;SDS011;52653;50.080;21.992;2024-01-15T08:19:33;23.70;;;15.20;;
65871;SDS011;52653;50.080;21.992;2024-01-15T08:22:19;24.80;;;15.80;;
65871;SDS011;52653;50.080;21.992;2024-01-15T08:25:06;23.70;;;14.60;;
65871;SDS011;52653;50.080;21.992;2024-01-15T08:27:59;23.10;;;14.80;;
65871;SDS011;52653;50.080;21.992;2024-01-15T08:30:44;22.90;;;14.50;;
65871;SDS011;52653;50.080;21.992;2024-01-15T08:33:38;24.00;;;15.90;;
65871;SDS011;52653;50.080;21.992;2024-01-15T08:36:22;23.80;;;15.20;;
65871;SDS011;52653;50.080;21.992;2024-01-15T08:39:17;26.00;;;16.10;;
65871;SDS011;52653;50.080;21.992;2024-01-15T08:42:12;23.70;;;16.90;;
65871;SDS011;52653;50.080;21.992;2024-01-15T08:45:05;28.70;;;19.70;;
65871;SDS011;52653;50.080;21.992;2024-01-15T08:48:23;23.70;;;15.60;;
65871;SDS011;52653;50.080;21.992;2024-01-15T08:51:17;25.40;;;16.50;;
65871;SDS011;52653;50.080;21.992;2024-01-15T08:54:04;24.80;;;17.10;;
65871;SDS011;52653;50.080;21.992;2024-01-15T08:56:52;26.30;;;18.40;;
65871;SDS011;52653;50.080;21.992;2024-01-15T08:59:45;21.30;;;14.90;;
65871;SDS011;52653;50.080;21.992;2024-01-15T09:02:31;24.70;;;15.90;;
65871;SDS011;52653;50.080;21.992;2024-01-15T09:05:17;22.10;;;15.20;;
65871;SDS011;52653;50.080;21.992;2024-01-15T09:08:12;23.20;;;15.20;;
65871;SDS011;52653;50.080;21.992;2024-01-15T09:11:05;21.40;;;15.10;;
65871;SDS011;52653;50.080;21.992;2024-01-15T09:13:53;22.10;;;15.00;;
65871;SDS011;52653;50.080;21.992;2024-01-15T09:16:46;22.20;;;15.00;;
65871;SDS011;52653;50.080;21.992;2024-01-15T09:19:39;22.70;;;14.70;;
65871;SDS011;52653;50.080;21.992;2024-01-15T09:22:32;20.50;;;13.90;;
65871;SDS011;52653;50.080;21.992;2024-01-15T09:25:25;23.30;;;15.50;;
65871;SDS011;52653;50.080;21.992;2024-01-15T09:28:18;20.60;;;14.70;;
65871;SDS011;52653;50.080;21.992;2024-01-15T09:31:09;21.40;;;14.40;;
65871;SDS011;52653;50.080;21.992;2024-01-15T09:34:02;20.30;;;14.20;;
65871;SDS011;52653;50.080;21.992;2024-01-15T09:36:55;26.20;;;17.20;;
65871;SDS011;52653;50.080;21.992;2024-01-15T09:39:51;21.70;;;15.70;;
65871;SDS011;52653;50.080;21.992;2024-01-15T09:42:45;22.70;;;15.60;;
65871;SDS011;52653;50.080;21.992;2024-01-15T09:45:38;21.70;;;15.00;;
65871;SDS011;52653;50.080;21.992;2024-01-15T09:48:34;24.50;;;14.50;;
65871;SDS011;52653;50.080;21.992;2024-01-15T09:51:28;20.40;;;14.00;;
65871;SDS011;52653;50.080;21.992;2024-01-15T09:54:22;20.40;;;13.90;;
65871;SDS011;52653;50.080;21.992;2024-01-15T09:57:16;20.00;;;13.40;;
65871;SDS011;52653;50.080;21.992;2024-01-15T10:00:10;18.30;;;12.60;;
65871;SDS011;52653;50.080;21.992;2024-01-15T10:03:05;20.00;;;13.10;;
65871;SDS011;52653;50.080;21.992;2024-01-15T10:06:02;21.20;;;13.50;;
65871;SDS011;52653;50.080;21.992;2024-01-15T10:09:01;19.80;;;13.10;;
65871;SDS011;52653;50.080;21.992;2024-01-15T10:11:37;19.90;;;13.00;;
65871;SDS011;52653;50.080;21.992;2024-01-15T10:14:12;19.70;;;13.30;;
65871;SDS011;52653;50.080;21.992;2024-01-15T10:17:12;17.70;;;12.00;;
65871;SDS011;52653;50.080;21.992;2024-01-15T10:19:57;17.30;;;12.20;;
65871;SDS011;52653;50.080;21.992;2024-01-15T10:22:51;20.00;;;12.00;;
65871;SDS011;52653;50.080;21.992;2024-01-15T10:25:36;17.00;;;10.50;;
65871;SDS011;52653;50.080;21.992;2024-01-15T10:28:30;18.80;;;12.00;;
65871;SDS011;52653;50.080;21.992;2024-01-15T10:31:24;17.50;;;10.90;;
65871;SDS011;52653;50.080;21.992;2024-01-15T10:34:19;18.80;;;12.70;;
65871;SDS011;52653;50.080;21.992;2024-01-15T10:36:59;19.20;;;11.80;;
65871;SDS011;52653;50.080;21.992;2024-01-15T10:39:54;17.60;;;10.70;;
65871;SDS011;52653;50.080;21.992;2024-01-15T10:42:47;14.80;;;9.50;;
65871;SDS011;52653;50.080;21.992;2024-01-15T10:45:43;14.00;;;9.10;;
65871;SDS011;52653;50.080;21.992;2024-01-15T10:49:00;16.60;;;10.00;;
65871;SDS011;52653;50.080;21.992;2024-01-15T10:51:54;17.70;;;10.30;;
65871;SDS011;52653;50.080;21.992;2024-01-15T10:54:43;16.10;;;11.00;;
65871;SDS011;52653;50.080;21.992;2024-01-15T10:57:39;16.30;;;10.20;;
65871;SDS011;52653;50.080;21.992;2024-01-15T11:00:32;16.10;;;10.80;;
65871;SDS011;52653;50.080;21.992;2024-01-15T11:03:27;16.50;;;10.70;;
65871;SDS011;52653;50.080;21.992;2024-01-15T11:06:24;13.80;;;9.40;;
65871;SDS011;52653;50.080;21.992;2024-01-15T11:09:19;16.20;;;10.50;;
65871;SDS011;52653;50.080;21.992;2024-01-15T11:12:12;16.60;;;11.40;;
65871;SDS011;52653;50.080;21.992;2024-01-15T11:15:02;17.30;;;11.50;;
65871;SDS011;52653;50.080;21.992;2024-01-15T11:18:00;18.60;;;11.60;;
65871;SDS011;52653;50.080;21.992;2024-01-15T11:27:40;18.80;;;11.80;;
65871;SDS011;52653;50.080;21.992;2024-01-15T11:30:34;19.10;;;12.30;;
65871;SDS011;52653;50.080;21.992;2024-01-15T11:33:36;18.50;;;11.70;;
65871;SDS011;52653;50.080;21.992;2024-01-15T11:39:41;20.70;;;13.20;;
65871;SDS011;52653;50.080;21.992;2024-01-15T11:42:28;19.90;;;13.00;;
65871;SDS011;52653;50.080;21.992;2024-01-15T11:45:12;20.60;;;12.50;;
65871;SDS011;52653;50.080;21.992;2024-01-15T11:48:10;21.20;;;12.40;;
65871;SDS011;52653;50.080;21.992;2024-01-15T11:50:59;12.00;;;7.00;;
65871;SDS011;52653;50.080;21.992;2024-01-15T11:53:52;15.70;;;8.80;;
65871;SDS011;52653;50.080;21.992;2024-01-15T11:56:53;12.20;;;6.70;;
65871;SDS011;52653;50.080;21.992;2024-01-15T11:59:46;9.90;;;5.70;;
65871;SDS011;52653;50.080;21.992;2024-01-15T12:02:40;8.60;;;5.00;;
65871;SDS011;52653;50.080;21.992;2024-01-15T12:05:30;10.70;;;6.20;;
65871;SDS011;52653;50.080;21.992;2024-01-15T12:08:22;9.60;;;6.10;;
65871;SDS011;52653;50.080;21.992;2024-01-15T12:11:10;11.10;;;6.00;;
65871;SDS011;52653;50.080;21.992;2024-01-15T12:13:55;11.20;;;6.30;;
65871;SDS011;52653;50.080;21.992;2024-01-15T12:16:49;10.90;;;6.20;;
65871;SDS011;52653;50.080;21.992;2024-01-15T12:19:42;10.50;;;5.80;;
65871;SDS011;52653;50.080;21.992;2024-01-15T12:22:28;9.50;;;5.90;;
65871;SDS011;52653;50.080;21.992;2024-01-15T12:25:41;11.60;;;7.00;;
65871;SDS011;52653;50.080;21.992;2024-01-15T12:28:43;13.20;;;8.00;;
65871;SDS011;52653;50.080;21.992;2024-01-15T12:31:28;14.60;;;8.00;;
65871;SDS011;52653;50.080;21.992;2024-01-15T12:34:15;19.40;;;11.20;;
65871;SDS011;52653;50.080;21.992;2024-01-15T12:37:09;17.30;;;9.60;;
65871;SDS011;52653;50.080;21.992;2024-01-15T12:40:01;19.00;;;9.50;;
65871;SDS011;52653;50.080;21.992;2024-01-15T12:42:55;14.80;;;7.90;;
65871;SDS011;52653;50.080;21.992;2024-01-15T12:45:49;13.80;;;8.10;;
65871;SDS011;52653;50.080;21.992;2024-01-15T12:48:42;18.70;;;9.60;;
65871;SDS011;52653;50.080;21.992;2024-01-15T12:51:35;19.20;;;10.40;;
65871;SDS011;52653;50.080;21.992;2024-01-15T12:54:29;19.20;;;9.10;;
65871;SDS011;52653;50.080;21.992;2024-01-15T12:57:16;15.90;;;8.70;;
65871;SDS011;52653;50.080;21.992;2024-01-15T13:00:03;17.20;;;9.80;;
65871;SDS011;52653;50.080;21.992;2024-01-15T13:02:54;18.50;;;10.40;;
65871;SDS011;52653;50.080;21.992;2024-01-15T13:05:48;15.50;;;7.40;;
65871;SDS011;52653;50.080;21.992;2024-01-15T13:08:42;13.10;;;7.40;;
65871;SDS011;52653;50.080;21.992;2024-01-15T13:11:28;11.80;;;6.70;;
65871;SDS011;52653;50.080;21.992;2024-01-15T13:14:14;13.30;;;7.10;;
65871;SDS011;52653;50.080;21.992;2024-01-15T13:17:07;16.10;;;7.60;;
65871;SDS011;52653;50.080;21.992;2024-01-15T13:20:02;12.90;;;7.40;;
65871;SDS011;52653;50.080;21.992;2024-01-15T13:22:58;17.60;;;9.40;;
65871;SDS011;52653;50.080;21.992;2024-01-15T13:25:54;18.80;;;10.10;;
65871;SDS011;52653;50.080;21.992;2024-01-15T13:28:48;16.00;;;9.50;;
65871;SDS011;52653;50.080;21.992;2024-01-15T13:31:40;14.80;;;8.80;;
65871;SDS011;52653;50.080;21.992;2024-01-15T13:34:33;15.60;;;9.10;;
65871;SDS011;52653;50.080;21.992;2024-01-15T13:37:28;15.30;;;10.10;;
65871;SDS011;52653;50.080;21.992;2024-01-15T13:40:14;16.20;;;10.90;;
65871;SDS011;52653;50.080;21.992;2024-01-15T13:43:10;15.70;;;9.30;;
65871;SDS011;52653;50.080;21.992;2024-01-15T13:46:03;16.10;;;9.50;;
65871;SDS011;52653;50.080;21.992;2024-01-15T13:48:57;15.70;;;9.40;;
65871;SDS011;52653;50.080;21.992;2024-01-15T13:51:52;13.00;;;8.60;;
65871;SDS011;52653;50.080;21.992;2024-01-15T13:54:45;12.10;;;7.80;;
65871;SDS011;52653;50.080;21.992;2024-01-15T13:57:40;14.50;;;7.10;;
65871;SDS011;52653;50.080;21.992;2024-01-15T14:00:27;13.90;;;8.10;;
65871;SDS011;52653;50.080;21.992;2024-01-15T14:03:14;13.90;;;8.20;;
65871;SDS011;52653;50.080;21.992;2024-01-15T14:06:07;10.90;;;7.00;;
65871;SDS011;52653;50.080;21.992;2024-01-15T14:09:00;12.10;;;7.90;;
65871;SDS011;52653;50.080;21.992;2024-01-15T14:11:54;13.10;;;7.50;;
65871;SDS011;52653;50.080;21.992;2024-01-15T14:14:37;13.40;;;7.00;;
65871;SDS011;52653;50.080;21.992;2024-01-15T14:17:32;10.60;;;6.90;;
65871;SDS011;52653;50.080;21.992;2024-01-15T14:20:25;12.00;;;6.50;;
65871;SDS011;52653;50.080;21.992;2024-01-15T14:23:18;9.50;;;5.00;;
65871;SDS011;52653;50.080;21.992;2024-01-15T14:26:04;10.60;;;6.50;;
65871;SDS011;52653;50.080;21.992;2024-01-15T14:28:56;11.00;;;7.00;;
65871;SDS011;52653;50.080;21.992;2024-01-15T14:31:51;11.30;;;6.50;;
65871;SDS011;52653;50.080;21.992;2024-01-15T14:34:44;19.00;;;11.30;;
65871;SDS011;52653;50.080;21.992;2024-01-15T14:37:38;13.30;;;7.40;;
65871;SDS011;52653;50.080;21.992;2024-01-15T14:40:31;13.10;;;7.80;;
65871;SDS011;52653;50.080;21.992;2024-01-15T14:43:25;14.50;;;8.30;;
65871;SDS011;52653;50.080;21.992;2024-01-15T14:46:19;15.20;;;8.30;;
65871;SDS011;52653;50.080;21.992;2024-01-15T14:49:12;20.70;;;13.00;;
65871;SDS011;52653;50.080;21.992;2024-01-15T14:51:50;14.00;;;10.50;;
65871;SDS011;52653;50.080;21.992;2024-01-15T14:54:44;13.70;;;8.70;;
65871;SDS011;52653;50.080;21.992;2024-01-15T14:57:59;13.40;;;7.90;;
65871;SDS011;52653;50.080;21.992;2024-01-15T15:00:46;14.70;;;8.30;;
65871;SDS011;52653;50.080;21.992;2024-01-15T15:03:39;12.20;;;7.90;;
65871;SDS011;52653;50.080;21.992;2024-01-15T15:06:34;14.70;;;10.00;;
65871;SDS011;52653;50.080;21.992;2024-01-15T15:09:20;13.90;;;8.70;;
65871;SDS011;52653;50.080;21.992;2024-01-15T15:12:13;14.10;;;8.50;;
65871;SDS011;52653;50.080;21.992;2024-01-15T15:15:07;16.20;;;9.40;;
65871;SDS011;52653;50.080;21.992;2024-01-15T15:18:07;15.20;;;9.40;;
65871;SDS011;52653;50.080;21.992;2024-01-15T15:21:00;15.00;;;9.70;;
65871;SDS011;52653;50.080;21.992;2024-01-15T15:23:54;16.00;;;10.60;;
65871;SDS011;52653;50.080;21.992;2024-01-15T15:26:39;15.80;;;9.70;;
65871;SDS011;52653;50.080;21.992;2024-01-15T15:29:35;16.90;;;9.90;;
65871;SDS011;52653;50.080;21.992;2024-01-15T15:32:28;17.40;;;10.90;;
65871;SDS011;52653;50.080;21.992;2024-01-15T15:35:15;15.50;;;9.20;;
65871;SDS011;52653;50.080;21.992;2024-01-15T15:38:12;18.40;;;11.10;;
65871;SDS011;52653;50.080;21.992;2024-01-15T15:41:06;16.40;;;9.50;;
65871;SDS011;52653;50.080;21.992;2024-01-15T15:43:59;14.60;;;8.40;;
65871;SDS011;52653;50.080;21.992;2024-01-15T15:46:34;21.90;;;12.70;;
65871;SDS011;52653;50.080;21.992;2024-01-15T15:49:28;36.10;;;19.00;;
65871;SDS011;52653;50.080;21.992;2024-01-15T15:52:21;18.40;;;11.40;;
65871;SDS011;52653;50.080;21.992;2024-01-15T15:55:14;18.10;;;12.80;;
65871;SDS011;52653;50.080;21.992;2024-01-15T15:58:09;23.40;;;15.10;;
65871;SDS011;52653;50.080;21.992;2024-01-15T16:01:02;17.10;;;10.10;;
65871;SDS011;52653;50.080;21.992;2024-01-15T16:03:55;18.50;;;10.10;;
65871;SDS011;52653;50.080;21.992;2024-01-15T16:06:49;21.80;;;11.10;;
65871;SDS011;52653;50.080;21.992;2024-01-15T16:09:43;20.50;;;11.80;;
65871;SDS011;52653;50.080;21.992;2024-01-15T16:12:39;19.30;;;11.00;;
65871;SDS011;52653;50.080;21.992;2024-01-15T16:15:53;15.90;;;10.00;;
65871;SDS011;52653;50.080;21.992;2024-01-15T16:19:08;17.70;;;9.30;;
65871;SDS011;52653;50.080;21.992;2024-01-15T16:22:14;17.40;;;9.20;;
65871;SDS011;52653;50.080;21.992;2024-01-15T16:25:30;19.80;;;9.60;;
65871;SDS011;52653;50.080;21.992;2024-01-15T16:28:27;12.30;;;7.20;;
65871;SDS011;52653;50.080;21.992;2024-01-15T16:31:20;15.40;;;9.10;;
65871;SDS011;52653;50.080;21.992;2024-01-15T16:34:16;17.10;;;9.10;;
65871;SDS011;52653;50.080;21.992;2024-01-15T16:37:09;20.10;;;10.70;;
65871;SDS011;52653;50.080;21.992;2024-01-15T16:40:02;15.60;;;8.70;;
65871;SDS011;52653;50.080;21.992;2024-01-15T16:42:55;19.40;;;10.40;;
65871;SDS011;52653;50.080;21.992;2024-01-15T16:45:39;16.00;;;9.70;;
65871;SDS011;52653;50.080;21.992;2024-01-15T16:48:32;17.30;;;9.90;;
65871;SDS011;52653;50.080;21.992;2024-01-15T16:51:25;17.40;;;10.30;;